createdAt,value
2019-03-31T00:00:32.949Z,12.30
2019-03-31T00:03:08.307Z,12.31
2019-03-31T00:06:40.708Z,12.30
2019-03-31T00:09:16.287Z,12.30
2019-03-31T00:11:51.653Z,12.20
2019-03-31T00:14:27.935Z,12.17
2019-03-31T00:17:03.325Z,12.16
2019-03-31T00:19:38.694Z,12.10
2019-03-31T00:22:14.133Z,12.05
2019-03-31T00:24:49.604Z,11.92
2019-03-31T00:27:25.253Z,11.92
2019-03-31T00:30:00.700Z,11.85
2019-03-31T00:32:36.285Z,11.78
2019-03-31T00:35:12.280Z,11.85
2019-03-31T00:37:47.697Z,11.83
2019-03-31T00:40:23.255Z,11.78
2019-03-31T00:42:58.772Z,11.76
2019-03-31T00:45:34.273Z,11.70
2019-03-31T00:48:09.659Z,11.62
2019-03-31T00:50:45.275Z,11.55
2019-03-31T00:53:20.653Z,11.50
2019-03-31T00:55:56.263Z,11.47
2019-03-31T00:58:31.655Z,11.46
2019-03-31T01:01:35.746Z,11.50
2019-03-31T01:04:01.939Z,11.42
2019-03-31T01:06:39.491Z,11.37
2019-03-31T01:09:35.623Z,11.37
2019-03-31T01:12:11.276Z,11.39
2019-03-31T01:14:47.298Z,11.37
2019-03-31T01:17:23.590Z,11.27
2019-03-31T01:20:00.953Z,11.42
2019-03-31T01:22:36.341Z,11.53
2019-03-31T01:25:13.651Z,11.63
2019-03-31T01:27:49.289Z,11.63
2019-03-31T01:30:25.120Z,11.46
2019-03-31T01:33:00.531Z,11.60
2019-03-31T01:35:35.892Z,11.60
2019-03-31T01:38:09.607Z,11.43
2019-03-31T01:40:44.782Z,11.43
2019-03-31T01:43:20.330Z,11.45
2019-03-31T01:45:55.798Z,11.50
2019-03-31T01:48:31.303Z,11.58
2019-03-31T01:51:06.960Z,11.59
2019-03-31T01:53:42.687Z,11.46
2019-03-31T01:56:18.286Z,11.46
2019-03-31T01:58:53.790Z,11.43
2019-03-31T02:01:30.712Z,11.37
2019-03-31T02:04:04.845Z,11.38
2019-03-31T02:06:40.684Z,11.42
2019-03-31T02:09:16.283Z,11.54
2019-03-31T02:11:51.680Z,11.54
2019-03-31T02:14:27.274Z,11.70
2019-03-31T02:17:02.766Z,11.59
2019-03-31T02:19:38.276Z,11.59
2019-03-31T02:22:13.676Z,11.58
2019-03-31T02:24:49.287Z,11.70
2019-03-31T02:27:25.661Z,11.70
2019-03-31T02:30:01.352Z,11.73
2019-03-31T02:32:35.560Z,11.83
2019-03-31T02:35:10.882Z,11.76
2019-03-31T02:37:44.568Z,11.69
2019-03-31T02:40:19.958Z,11.76
2019-03-31T02:42:53.573Z,11.74
2019-03-31T02:45:28.655Z,11.68
2019-03-31T02:48:04.281Z,11.50
2019-03-31T02:50:51.694Z,11.55
2019-03-31T02:53:27.292Z,11.52
2019-03-31T02:56:03.283Z,11.52
2019-03-31T02:58:39.755Z,11.41
2019-03-31T03:01:18.294Z,11.41
2019-03-31T03:03:53.790Z,11.47
2019-03-31T03:08:11.283Z,11.30
2019-03-31T03:10:47.660Z,11.31
2019-03-31T03:13:25.487Z,11.34
2019-03-31T03:16:20.286Z,11.13
2019-03-31T03:18:55.742Z,11.21
2019-03-31T03:21:31.568Z,11.13
2019-03-31T03:24:07.273Z,11.05
2019-03-31T03:26:42.702Z,11.02
2019-03-31T03:29:18.312Z,11.15
2019-03-31T03:31:53.753Z,11.13
2019-03-31T03:34:28.560Z,11.26
2019-03-31T03:37:03.690Z,11.34
2019-03-31T03:39:40.132Z,11.42
2019-03-31T03:42:15.682Z,11.35
2019-03-31T03:44:51.283Z,11.24
2019-03-31T03:47:26.680Z,11.18
2019-03-31T03:50:02.138Z,11.11
2019-03-31T03:52:37.685Z,11.09
2019-03-31T03:55:13.273Z,11.19
2019-03-31T03:57:48.684Z,11.03
2019-03-31T04:00:22.556Z,11.03
2019-03-31T04:02:57.680Z,11.05
2019-03-31T04:05:33.250Z,11.03
2019-03-31T04:08:08.681Z,11.09
2019-03-31T04:11:20.598Z,11.03
2019-03-31T04:13:53.279Z,11.01
2019-03-31T04:16:29.593Z,11.02
2019-03-31T04:19:03.557Z,10.99
2019-03-31T04:21:39.676Z,10.97
2019-03-31T04:24:13.689Z,10.99
2019-03-31T04:26:48.796Z,10.95
2019-03-31T04:29:22.629Z,10.95
2019-03-31T04:31:57.790Z,10.91
2019-03-31T04:34:33.268Z,10.91
2019-03-31T04:37:08.668Z,10.92
2019-03-31T04:39:44.282Z,10.91
2019-03-31T04:42:19.748Z,10.84
2019-03-31T04:44:55.275Z,10.77
2019-03-31T04:47:30.758Z,10.70
2019-03-31T04:50:06.273Z,10.61
2019-03-31T04:52:41.703Z,10.58
2019-03-31T04:55:17.265Z,10.50
2019-03-31T04:57:52.819Z,10.43
2019-03-31T05:00:26.555Z,10.38
2019-03-31T05:03:01.744Z,10.37
2019-03-31T05:05:37.209Z,10.31
2019-03-31T05:08:12.667Z,10.29
2019-03-31T05:10:48.259Z,10.27
2019-03-31T05:13:23.700Z,10.28
2019-03-31T05:15:59.284Z,10.31
2019-03-31T05:18:34.694Z,10.37
2019-03-31T05:21:10.274Z,10.32
2019-03-31T05:23:45.666Z,10.32
2019-03-31T05:27:05.773Z,10.31
2019-03-31T05:29:39.571Z,10.31
2019-03-31T05:32:14.867Z,10.30
2019-03-31T05:34:50.268Z,10.42
2019-03-31T05:37:25.687Z,10.50
2019-03-31T05:40:01.275Z,10.50
2019-03-31T05:42:36.703Z,10.56
2019-03-31T05:45:12.270Z,10.60
2019-03-31T05:47:47.704Z,10.60
2019-03-31T05:50:23.247Z,10.60
2019-03-31T05:52:58.713Z,10.74
2019-03-31T05:55:34.276Z,10.86
2019-03-31T05:58:09.673Z,11.04
2019-03-31T06:00:49.087Z,11.20
2019-03-31T06:03:24.630Z,11.45
2019-03-31T06:06:00.240Z,11.45
2019-03-31T06:08:35.689Z,11.72
2019-03-31T06:11:11.264Z,11.89
2019-03-31T06:13:46.686Z,11.98
2019-03-31T06:16:22.269Z,12.18
2019-03-31T06:18:57.680Z,12.37
2019-03-31T06:21:34.640Z,12.67
2019-03-31T06:24:10.270Z,12.75
2019-03-31T06:26:45.766Z,12.88
2019-03-31T06:29:19.692Z,13.05
2019-03-31T06:31:54.871Z,13.19
2019-03-31T06:34:28.587Z,13.49
2019-03-31T06:37:03.677Z,13.75
2019-03-31T06:39:39.267Z,13.84
2019-03-31T06:42:14.676Z,14.02
2019-03-31T06:44:50.278Z,14.18
2019-03-31T06:47:25.766Z,14.40
2019-03-31T06:49:59.392Z,14.49
2019-03-31T06:52:34.655Z,14.69
2019-03-31T06:55:10.676Z,14.88
2019-03-31T06:57:46.177Z,15.00
2019-03-31T07:00:21.713Z,15.34
2019-03-31T07:02:57.275Z,15.34
2019-03-31T07:05:32.690Z,15.50
2019-03-31T07:08:08.309Z,15.74
2019-03-31T07:10:43.739Z,15.97
2019-03-31T07:13:22.278Z,16.24
2019-03-31T07:15:57.680Z,16.22
2019-03-31T07:18:34.285Z,16.60
2019-03-31T07:22:07.296Z,16.74
2019-03-31T07:24:43.270Z,16.80
2019-03-31T07:27:21.412Z,16.90
2019-03-31T07:29:57.109Z,17.28
2019-03-31T07:32:33.285Z,17.28
2019-03-31T07:35:18.524Z,17.50
2019-03-31T07:37:53.128Z,17.61
2019-03-31T07:40:29.937Z,17.78
2019-03-31T07:43:06.074Z,17.90
2019-03-31T07:45:41.293Z,18.05
2019-03-31T07:48:17.806Z,18.04
2019-03-31T07:50:51.592Z,18.03
2019-03-31T07:53:26.870Z,18.18
2019-03-31T07:56:02.253Z,18.54
2019-03-31T07:58:37.697Z,19.06
2019-03-31T08:01:11.567Z,19.36
2019-03-31T08:03:46.862Z,19.67
2019-03-31T08:06:21.277Z,19.93
2019-03-31T08:08:56.686Z,20.31
2019-03-31T08:11:33.882Z,21.49
2019-03-31T08:14:09.330Z,21.49
2019-03-31T08:16:45.670Z,21.90
2019-03-31T08:19:22.246Z,22.32
2019-03-31T08:21:58.246Z,22.88
2019-03-31T08:24:43.651Z,23.18
2019-03-31T08:27:19.324Z,23.57
2019-03-31T08:30:00.542Z,23.99
2019-03-31T08:32:32.403Z,24.00
2019-03-31T08:35:08.860Z,24.16
2019-03-31T08:37:44.332Z,24.34
2019-03-31T08:40:20.516Z,24.80
2019-03-31T08:42:55.968Z,24.81
2019-03-31T08:45:31.279Z,24.78
2019-03-31T08:48:06.770Z,24.64
2019-03-31T08:50:41.551Z,24.64
2019-03-31T08:53:16.818Z,24.85
2019-03-31T08:55:50.556Z,24.67
2019-03-31T08:58:25.694Z,24.48
2019-03-31T09:01:50.765Z,24.81
2019-03-31T09:04:26.341Z,25.01
2019-03-31T09:07:02.112Z,25.70
2019-03-31T09:09:37.895Z,25.82
2019-03-31T09:12:13.434Z,25.12
2019-03-31T09:14:48.869Z,24.23
2019-03-31T09:17:24.278Z,23.44
2019-03-31T09:20:00.702Z,22.44
2019-03-31T09:22:34.415Z,23.09
2019-03-31T09:25:10.709Z,23.34
2019-03-31T09:27:46.149Z,22.19
2019-03-31T09:30:21.318Z,21.61
2019-03-31T09:32:56.672Z,21.02
2019-03-31T09:35:32.276Z,21.51
2019-03-31T09:38:07.662Z,21.51
2019-03-31T09:40:44.273Z,22.40
2019-03-31T09:43:19.891Z,24.40
2019-03-31T09:45:53.626Z,24.40
2019-03-31T09:48:28.870Z,24.65
2019-03-31T09:51:02.579Z,24.73
2019-03-31T09:53:37.866Z,24.61
2019-03-31T09:56:15.229Z,24.64
2019-03-31T09:58:50.283Z,24.64
2019-03-31T10:01:25.710Z,24.98
2019-03-31T10:04:01.283Z,24.67
2019-03-31T10:06:38.642Z,24.93
2019-03-31T10:09:14.276Z,25.40
2019-03-31T10:11:49.689Z,26.12
2019-03-31T10:14:25.271Z,26.64
2019-03-31T10:17:00.666Z,27.24
2019-03-31T10:19:36.283Z,27.12
2019-03-31T10:22:11.703Z,27.12
2019-03-31T10:24:45.600Z,26.62
2019-03-31T10:27:20.823Z,26.39
2019-03-31T10:29:54.599Z,26.10
2019-03-31T10:32:29.784Z,25.28
2019-03-31T10:35:03.429Z,24.98
2019-03-31T10:37:38.648Z,24.57
2019-03-31T10:40:14.290Z,23.83
2019-03-31T10:42:49.647Z,23.24
2019-03-31T10:45:25.276Z,23.09
2019-03-31T10:48:00.652Z,23.07
2019-03-31T10:50:35.943Z,22.54
2019-03-31T10:53:11.274Z,21.97
2019-03-31T10:55:46.769Z,21.68
2019-03-31T10:58:20.529Z,21.32
2019-03-31T11:00:55.776Z,21.12
2019-03-31T11:03:32.970Z,21.28
2019-03-31T11:06:06.684Z,23.74
2019-03-31T11:08:42.206Z,23.74
2019-03-31T11:11:17.656Z,25.17
2019-03-31T11:13:53.133Z,25.79
2019-03-31T11:16:28.963Z,26.35
2019-03-31T11:19:04.304Z,26.16
2019-03-31T11:21:44.707Z,26.16
2019-03-31T11:24:20.278Z,26.05
2019-03-31T11:26:55.680Z,26.05
2019-03-31T11:29:29.374Z,25.17
2019-03-31T11:32:04.692Z,24.24
2019-03-31T11:34:40.274Z,23.83
2019-03-31T11:37:15.688Z,23.58
2019-03-31T11:39:51.255Z,23.87
2019-03-31T11:42:26.687Z,24.59
2019-03-31T11:45:02.283Z,23.93
2019-03-31T11:47:37.655Z,23.35
2019-03-31T11:50:13.336Z,23.12
2019-03-31T11:52:48.684Z,22.97
2019-03-31T11:56:56.326Z,22.51
2019-03-31T11:59:31.712Z,22.02
2019-03-31T12:02:07.273Z,21.69
2019-03-31T12:04:45.279Z,21.26
2019-03-31T12:07:27.838Z,20.76
2019-03-31T12:09:57.722Z,20.51
2019-03-31T12:12:33.284Z,20.38
2019-03-31T12:15:09.310Z,20.35
2019-03-31T12:17:46.337Z,20.27
2019-03-31T12:20:21.678Z,19.98
2019-03-31T12:22:57.277Z,20.13
2019-03-31T12:25:32.669Z,20.67
2019-03-31T12:28:08.269Z,21.09
2019-03-31T12:30:43.672Z,21.05
2019-03-31T12:33:19.276Z,21.94
2019-03-31T12:35:54.661Z,21.94
2019-03-31T12:38:30.265Z,21.78
2019-03-31T12:41:05.695Z,21.63
2019-03-31T12:43:41.276Z,22.06
2019-03-31T12:48:46.936Z,21.70
2019-03-31T12:51:22.275Z,21.57
2019-03-31T12:53:57.688Z,21.23
2019-03-31T12:56:33.979Z,21.35
2019-03-31T12:59:09.537Z,22.21
2019-03-31T13:01:44.888Z,22.21
2019-03-31T13:04:18.587Z,22.50
2019-03-31T13:06:53.887Z,22.73
2019-03-31T13:09:29.339Z,23.64
2019-03-31T13:12:05.106Z,23.62
2019-03-31T13:27:52.730Z,19.23
2019-03-31T13:30:28.266Z,19.23
2019-03-31T13:33:03.658Z,18.91
2019-03-31T13:35:39.475Z,18.91
2019-03-31T13:38:15.871Z,18.87
2019-03-31T13:40:50.586Z,18.87
2019-03-31T13:43:26.127Z,18.83
2019-03-31T13:46:01.811Z,17.99
2019-03-31T13:48:35.564Z,17.99
2019-03-31T13:51:10.714Z,17.80
2019-03-31T13:53:46.276Z,17.78
2019-03-31T13:56:21.776Z,17.44
2019-03-31T13:58:57.274Z,17.44
2019-03-31T14:01:33.827Z,17.10
2019-03-31T14:04:07.579Z,17.10
2019-03-31T14:06:42.891Z,17.05
2019-03-31T14:09:18.320Z,17.03
2019-03-31T14:11:54.443Z,16.95
2019-03-31T14:14:30.266Z,16.95
2019-03-31T14:17:05.689Z,16.92
2019-03-31T14:19:41.345Z,16.85
2019-03-31T14:22:16.721Z,16.76
2019-03-31T14:24:50.566Z,16.63
2019-03-31T14:27:25.679Z,16.62
2019-03-31T14:30:01.128Z,16.69
2019-03-31T14:32:48.831Z,16.66
2019-03-31T14:35:24.634Z,16.64
2019-03-31T14:38:00.733Z,16.60
2019-03-31T14:40:36.284Z,16.51
2019-03-31T14:43:11.948Z,16.49
2019-03-31T14:45:47.641Z,16.19
2019-03-31T14:48:23.299Z,16.19
2019-03-31T14:50:58.671Z,16.07
2019-03-31T14:53:34.289Z,15.91
2019-03-31T14:56:09.659Z,15.83
2019-03-31T14:58:45.274Z,15.80
2019-03-31T15:01:21.412Z,15.60
2019-03-31T15:03:56.877Z,15.42
2019-03-31T15:06:33.775Z,15.33
2019-03-31T15:10:30.557Z,15.19
2019-03-31T15:13:06.281Z,15.19
2019-03-31T15:15:42.364Z,15.18
2019-03-31T15:18:17.887Z,15.20
2019-03-31T15:20:53.271Z,15.21
2019-03-31T15:23:29.353Z,15.12
2019-03-31T15:26:05.087Z,15.12
2019-03-31T15:28:40.730Z,15.00
2019-03-31T15:31:14.621Z,15.00
2019-03-31T15:33:50.269Z,14.93
2019-03-31T15:36:25.945Z,14.93
2019-03-31T15:39:08.661Z,14.89
2019-03-31T15:42:47.873Z,14.91
2019-03-31T15:45:23.304Z,14.86
2019-03-31T15:47:58.718Z,14.84
2019-03-31T15:50:32.596Z,14.83
2019-03-31T15:53:07.946Z,14.88
2019-03-31T15:55:43.271Z,14.89
2019-03-31T15:58:18.736Z,14.89
2019-03-31T16:03:17.895Z,14.84
2019-03-31T16:05:53.375Z,14.74
2019-03-31T16:08:28.248Z,14.69
2019-03-31T16:11:04.957Z,14.62
2019-03-31T16:13:39.945Z,14.55
2019-03-31T16:16:14.656Z,14.48
2019-03-31T16:18:49.274Z,14.45
2019-03-31T16:21:51.325Z,14.42
2019-03-31T16:24:38.270Z,14.31
2019-03-31T16:27:13.251Z,14.22
2019-03-31T16:29:47.884Z,14.16
2019-03-31T16:32:21.089Z,14.14
2019-03-31T16:34:54.039Z,14.08
2019-03-31T16:37:27.117Z,14.04
2019-03-31T16:40:01.655Z,13.99
2019-03-31T16:42:36.287Z,13.86
2019-03-31T16:45:11.119Z,13.79
2019-03-31T16:47:45.772Z,13.79
2019-03-31T16:50:19.083Z,13.79
2019-03-31T16:52:53.854Z,13.66
2019-03-31T16:55:27.269Z,13.66
2019-03-31T16:58:01.634Z,13.60
2019-03-31T17:00:36.272Z,13.60
2019-03-31T17:03:10.721Z,13.57
2019-03-31T17:05:43.978Z,13.56
2019-03-31T17:08:17.020Z,13.56
2019-03-31T17:10:49.997Z,13.49
2019-03-31T17:13:23.275Z,13.49
2019-03-31T17:15:57.620Z,13.45
2019-03-31T17:18:32.229Z,13.45
2019-03-31T17:22:26.067Z,13.38
2019-03-31T17:25:00.674Z,13.34
2019-03-31T17:27:35.251Z,13.34
2019-03-31T17:30:11.315Z,13.31
2019-03-31T17:32:45.918Z,13.31
2019-03-31T17:35:20.364Z,13.29
2019-03-31T17:37:55.241Z,13.27
2019-03-31T17:40:29.879Z,13.24
2019-03-31T17:43:02.980Z,13.25
2019-03-31T17:45:35.866Z,13.23
2019-03-31T17:48:11.467Z,13.24
2019-03-31T17:50:46.946Z,13.22
2019-03-31T17:53:21.339Z,13.16
2019-03-31T17:55:55.915Z,13.16
2019-03-31T17:58:30.290Z,13.17
2019-03-31T18:01:04.947Z,13.17
2019-03-31T18:03:38.068Z,13.14
2019-03-31T18:06:12.409Z,13.16
2019-03-31T18:08:47.280Z,13.18
2019-03-31T18:11:21.771Z,13.08
2019-03-31T18:13:54.861Z,13.08
2019-03-31T18:16:29.326Z,13.03
2019-03-31T18:19:04.135Z,12.98
2019-03-31T18:21:39.766Z,12.94
2019-03-31T18:24:13.030Z,12.94
2019-03-31T18:26:47.271Z,12.93
2019-03-31T18:29:21.834Z,12.93
2019-03-31T18:31:55.095Z,12.92
2019-03-31T18:34:29.326Z,12.93
2019-03-31T18:37:03.934Z,12.95
2019-03-31T18:39:38.270Z,12.91
2019-03-31T18:42:12.873Z,12.88
2019-03-31T18:44:47.325Z,12.85
2019-03-31T18:47:22.111Z,12.81
2019-03-31T18:49:57.653Z,12.80
2019-03-31T18:52:32.098Z,12.80
2019-03-31T18:55:28.466Z,12.78
2019-03-31T18:58:09.560Z,12.78
2019-03-31T19:00:52.764Z,12.72
2019-03-31T19:03:47.691Z,12.77
2019-03-31T19:06:43.270Z,12.76
2019-03-31T19:09:54.681Z,12.71
2019-03-31T19:12:51.118Z,12.70
2019-03-31T19:15:43.334Z,12.69
2019-03-31T19:18:28.410Z,12.70
2019-03-31T19:21:40.264Z,12.65
2019-03-31T19:24:45.911Z,12.62
2019-03-31T19:27:32.951Z,12.61
2019-03-31T19:30:26.673Z,12.63
2019-03-31T19:33:08.274Z,12.63
2019-03-31T19:36:10.699Z,12.55
2019-03-31T19:39:07.700Z,12.53
2019-03-31T19:41:58.430Z,12.54
2019-03-31T19:44:41.720Z,12.51
2019-03-31T19:47:29.811Z,12.54
2019-03-31T19:50:15.556Z,12.51
2019-03-31T19:53:08.682Z,12.47
2019-03-31T19:56:07.508Z,12.40
2019-03-31T19:58:52.874Z,12.41
2019-03-31T20:01:44.364Z,12.40
2019-03-31T20:04:43.504Z,12.40
2019-03-31T20:07:36.558Z,12.40
2019-03-31T20:10:23.618Z,12.36
2019-03-31T20:13:10.284Z,12.36
2019-03-31T20:16:02.901Z,12.34
2019-03-31T20:19:02.382Z,12.29
2019-03-31T20:22:03.714Z,12.29
2019-03-31T20:24:55.613Z,12.23
2019-03-31T20:27:47.504Z,12.24
2019-03-31T20:30:43.681Z,12.22
2019-03-31T20:33:39.334Z,12.19
2019-03-31T20:36:43.637Z,12.17
2019-03-31T20:39:56.825Z,12.14
2019-03-31T20:42:45.404Z,12.09
2019-03-31T20:46:09.656Z,12.00
2019-03-31T20:48:44.081Z,11.88
2019-03-31T20:51:18.559Z,11.69
2019-03-31T20:53:53.073Z,11.69
2019-03-31T20:56:28.132Z,11.57
2019-03-31T20:59:02.974Z,11.57
2019-03-31T21:01:39.697Z,11.43
2019-03-31T21:04:14.268Z,11.43
2019-03-31T21:06:48.671Z,11.37
2019-03-31T21:09:23.081Z,11.27
2019-03-31T21:11:57.649Z,11.18
2019-03-31T21:14:33.681Z,11.18
2019-03-31T21:17:09.119Z,11.07
2019-03-31T21:19:43.883Z,11.00
2019-03-31T21:22:18.275Z,10.95
2019-03-31T21:24:52.934Z,10.91
2019-03-31T21:27:26.276Z,10.83
2019-03-31T21:30:00.633Z,10.76
2019-03-31T21:32:35.112Z,10.76
2019-03-31T21:35:09.699Z,10.66
2019-03-31T21:37:44.046Z,10.66
2019-03-31T21:42:45.279Z,10.59
2019-03-31T21:47:04.714Z,10.44
2019-03-31T21:49:39.288Z,10.44
2019-03-31T21:52:14.273Z,10.41
2019-03-31T21:54:48.787Z,10.31
2019-03-31T21:57:23.115Z,10.26
2019-03-31T21:59:57.658Z,10.17
2019-03-31T22:02:31.946Z,10.17
2019-03-31T22:05:06.740Z,10.10
2019-03-31T22:07:41.292Z,10.06
2019-03-31T22:10:16.021Z,10.06
2019-03-31T22:12:50.585Z,9.92
2019-03-31T22:15:25.081Z,9.92
2019-03-31T22:17:59.671Z,9.81
2019-03-31T22:20:34.134Z,9.77
2019-03-31T22:23:08.947Z,9.69
2019-03-31T22:25:42.278Z,9.69
2019-03-31T22:28:16.716Z,9.59
2019-03-31T22:31:37.651Z,9.62
2019-03-31T22:34:12.286Z,9.55
2019-03-31T22:36:46.794Z,9.51
2019-03-31T22:39:19.872Z,9.48
2019-03-31T22:41:54.261Z,9.44
2019-03-31T22:44:28.689Z,9.38
2019-03-31T22:47:03.079Z,9.39
2019-03-31T22:49:38.693Z,9.30
2019-03-31T22:52:13.302Z,9.30
2019-03-31T22:54:47.749Z,9.24
2019-03-31T22:57:23.078Z,9.24
2019-03-31T22:59:57.691Z,9.20
2019-03-31T23:02:32.285Z,9.20
2019-03-31T23:05:06.736Z,9.17
2019-03-31T23:07:40.960Z,9.17
2019-03-31T23:10:15.121Z,9.12
2019-03-31T23:12:49.684Z,9.12
2019-03-31T23:15:24.096Z,9.10
2019-03-31T23:17:58.624Z,9.06
2019-03-31T23:20:33.277Z,9.06
2019-03-31T23:23:07.692Z,9.00
2019-03-31T23:25:41.948Z,8.99
2019-03-31T23:28:14.701Z,8.96
2019-03-31T23:30:49.126Z,8.96
2019-03-31T23:33:23.676Z,8.90
2019-03-31T23:35:57.954Z,8.87
2019-03-31T23:38:32.087Z,8.87
2019-03-31T23:41:06.660Z,8.78
2019-03-31T23:43:44.263Z,8.78
2019-03-31T23:46:18.711Z,8.77
2019-03-31T23:48:52.955Z,8.77
2019-03-31T23:51:25.868Z,8.73
2019-03-31T23:53:59.951Z,8.73
2019-03-31T23:56:33.281Z,8.67
2019-03-31T23:59:07.592Z,8.57
